Flight Track Log - Related Links

Times and Time Zones

All times are in EDT time to prevent confusion due to time zone crossing. See the VH-NWZ flight status page for this flight to view local times or setup timezone preferences in your user account.


Time Position Orientation Groundspeed Altitude Reporting Facility
EDT Latitude Longitude Course Direction KTS MPH feet Rate Location/Type
Tue 11:56:51 PM -28.1925 153.4975 201° Southwest 74 85 1,600  Level Aus ATC (RADAR)
Tue 11:59:26 PM -28.2576 153.4695 201° Southwest 97 112 1,400 -27 Descending Aus ATC (RADAR)
Wed 12:00:36 AM -28.2868 153.4763 168° South 96 110 1,500 36 Climbing Aus ATC (RADAR)
Wed 12:02:15 AM -28.3248 153.5021 149° Southeast 94 108 1,500 197 Level Aus ATC (RADAR)
Wed 12:04:40 AM -28.3720 153.5344 149° Southeast 73 84 2,300 171 Climbing Aus ATC (RADAR)
Wed 12:05:45 AM -28.3996 153.5385 173° South 94 108 2,100 -141 Descending Aus ATC (RADAR)
Wed 12:07:30 AM -28.4431 153.5462 171° South 83 96 1,900 -49 Descending Aus ATC (RADAR)
Wed 12:09:50 AM -28.4900 153.5466 180° South 69 79 1,900  Level Aus ATC (RADAR)
Wed 12:11:05 AM -28.5093 153.5500 171° South 53 61 1,900 34 Level Aus ATC (RADAR)
Wed 12:12:49 AM -28.5300 153.5536 171° South 120 138 2,000 95 Climbing Aus ATC (RADAR)
Wed 12:14:14 AM -28.4856 153.5511 357° North 108 124 2,200 39 Climbing Aus ATC (RADAR)
Wed 12:15:24 AM -28.4485 153.5549 North 121 139 2,100 -222 Descending Aus ATC (RADAR)
Wed 12:16:29 AM -28.4118 153.5544 359° North 122 140 1,700 -218 Descending Aus ATC (RADAR)
Wed 12:18:09 AM -28.3624 153.5764 21° North 114 131 1,500 -73 Descending Aus ATC (RADAR)
Wed 12:19:14 AM -28.3260 153.5743 357° North 122 140 1,500  Level Aus ATC (RADAR)
Wed 12:20:34 AM -28.2806 153.5825 North 122 140 1,500 41 Level Aus ATC (RADAR)
Wed 12:21:39 AM -28.2441 153.5861 North 127 146 1,600  Climbing Aus ATC (RADAR)
Wed 12:22:19 AM -28.2214 153.5818 351° North 125 144 1,500 -75 Descending Aus ATC (RADAR)
Wed 12:22:59 AM -28.1984 153.5763 348° North 126 145 1,500 71 Level Aus ATC (RADAR)
Wed 12:23:43 AM -28.1739 153.5643 337° Northwest 128 147 1,600 -182 Climbing Aus ATC (RADAR)
Wed 12:24:38 AM -28.1516 153.5382 314° West 128 147 1,200 -356 Descending Aus ATC (RADAR)
Wed 12:25:58 AM -28.1370 153.4971 292° West 90 104 800 -369 Descending Aus ATC (RADAR)
Wed 12:26:48 AM -28.1469 153.4945 193° South 53 61 400 -480 Descending Aus ATC (RADAR)
Wed 12:28:03 AM -28.1620 153.5048 149° Southeast 52 60 -320 Descending Aus ATC (RADAR)

Login

Don't have an account? Register now (free) for customized features, flight alerts, and more!